SCO45NB EGPH-EGPF

Flight info

Callsign SCO45NB
Flight time 0h 18m
Altitude 8000
Route XEXUS
Aircraft E195/M-SDE3GILORVW/S

Departure

Time 2026-05-06 21:27
Airport Edinburgh Airport (EGPH)

Arrival

Time 2026-05-06 21:46
Airport Glasgow Airport (EGPF)
Time Latitude Longitude Altitude Speed Heading
2026-05-06 21:22 55.94952 -3.36586 106 ft 2 kts 239°
2026-05-06 21:23 55.94941 -3.36618 106 ft 4 kts 239°
2026-05-06 21:23 55.94923 -3.36671 104 ft 6 kts 239°
2026-05-06 21:23 55.94899 -3.36745 106 ft 8 kts 242°
2026-05-06 21:23 55.94917 -3.36833 105 ft 9 kts 314°
2026-05-06 21:24 55.94912 -3.36939 105 ft 10 kts 238°
2026-05-06 21:24 55.94872 -3.37055 105 ft 12 kts 238°
2026-05-06 21:24 55.94826 -3.37189 105 ft 13 kts 238°
2026-05-06 21:24 55.94775 -3.37338 105 ft 15 kts 238°
2026-05-06 21:25 55.94719 -3.37505 104 ft 16 kts 240°
2026-05-06 21:25 55.94659 -3.37683 105 ft 17 kts 237°
2026-05-06 21:25 55.94596 -3.37867 105 ft 16 kts 240°
2026-05-06 21:25 55.94617 -3.37981 105 ft 9 kts 322°
2026-05-06 21:26 55.94669 -3.38046 107 ft 9 kts 330°
2026-05-06 21:26 55.94721 -3.38064 108 ft 7 kts 41°
2026-05-06 21:26 55.94729 -3.38045 108 ft 3 kts 57°
2026-05-06 21:26 55.94815 -3.37795 108 ft 57 kts 59°
2026-05-06 21:27 55.95149 -3.36804 106 ft 127 kts 59°
2026-05-06 21:27 55.95714 -3.35174 293 ft 172 kts 61°
2026-05-06 21:27 55.96408 -3.33318 934 ft 185 kts 47°
2026-05-06 21:27 55.97388 -3.31774 903 ft 192 kts 38°
2026-05-06 21:28 55.98411 -3.30455 1137 ft 177 kts 36°
2026-05-06 21:28 55.99481 -3.29125 1019 ft 185 kts 33°
2026-05-06 21:28 56.00650 -3.28163 849 ft 185 kts 14°
2026-05-06 21:28 56.01868 -3.28080 1019 ft 180 kts 350°
2026-05-06 21:29 56.03046 -3.28980 1020 ft 182 kts 319°
2026-05-06 21:29 56.03800 -3.30770 1312 ft 196 kts 295°
2026-05-06 21:29 56.04163 -3.33155 2081 ft 189 kts 274°
2026-05-06 21:29 56.04141 -3.35556 2184 ft 209 kts 257°
2026-05-06 21:30 56.03515 -3.37977 1971 ft 212 kts 233°
2026-05-06 21:30 56.02643 -3.39987 2212 ft 212 kts 230°
2026-05-06 21:30 56.01682 -3.42247 2623 ft 237 kts 233°
2026-05-06 21:30 56.00866 -3.44655 3959 ft 209 kts 242°
2026-05-06 21:31 56.00385 -3.46983 5083 ft 200 kts 255°
2026-05-06 21:31 56.00227 -3.49622 5150 ft 221 kts 270°
2026-05-06 21:31 56.00298 -3.52379 5182 ft 225 kts 271°
2026-05-06 21:31 56.00382 -3.55172 5068 ft 221 kts 272°
2026-05-06 21:32 56.00474 -3.57890 5123 ft 219 kts 272°
2026-05-06 21:32 56.00614 -3.63398 5142 ft 223 kts 271°
2026-05-06 21:32 56.00676 -3.66153 5151 ft 220 kts 271°
2026-05-06 21:33 56.00735 -3.68884 5155 ft 222 kts 271°
2026-05-06 21:33 56.00800 -3.71644 5132 ft 222 kts 271°
2026-05-06 21:33 56.00862 -3.74385 5142 ft 221 kts 271°
2026-05-06 21:33 56.00920 -3.77149 5023 ft 224 kts 271°
2026-05-06 21:34 56.00976 -3.79899 4987 ft 218 kts 270°
2026-05-06 21:34 56.01021 -3.82581 5048 ft 219 kts 270°
2026-05-06 21:34 56.01078 -3.85344 5124 ft 222 kts 271°
2026-05-06 21:34 56.01146 -3.88119 5072 ft 224 kts 271°
2026-05-06 21:35 56.01213 -3.90865 5086 ft 220 kts 271°
2026-05-06 21:35 56.01280 -3.93607 5054 ft 222 kts 271°
2026-05-06 21:35 56.01338 -3.96358 5073 ft 221 kts 270°
2026-05-06 21:35 56.01392 -3.99102 5046 ft 222 kts 270°
2026-05-06 21:36 56.01445 -4.01856 5020 ft 221 kts 271°
2026-05-06 21:36 56.01498 -4.04597 5039 ft 220 kts 270°
2026-05-06 21:36 56.01555 -4.07345 5038 ft 222 kts 271°
2026-05-06 21:36 56.01606 -4.10140 4859 ft 223 kts 270°
2026-05-06 21:37 56.01661 -4.12847 4887 ft 216 kts 269°
2026-05-06 21:37 56.01366 -4.15451 4944 ft 215 kts 246°
2026-05-06 21:37 56.00717 -4.17849 5231 ft 218 kts 233°
2026-05-06 21:37 55.99701 -4.19783 5829 ft 214 kts 221°
2026-05-06 21:38 55.98637 -4.21671 6435 ft 214 kts 229°
2026-05-06 21:38 55.97592 -4.23508 6824 ft 205 kts 205°
2026-05-06 21:38 55.96222 -4.23760 7428 ft 197 kts 161°
2026-05-06 21:38 55.95166 -4.22317 7990 ft 195 kts 123°
2026-05-06 21:39 55.94855 -4.19947 8188 ft 213 kts 82°
2026-05-06 21:39 55.95387 -4.17388 7652 ft 227 kts 60°
2026-05-06 21:39 55.96274 -4.15018 7046 ft 232 kts 54°
2026-05-06 21:39 55.97549 -4.13308 6042 ft 245 kts 10°
2026-05-06 21:40 55.99209 -4.13604 5488 ft 237 kts 326°
2026-05-06 21:40 56.00268 -4.15610 5349 ft 212 kts 303°
2026-05-06 21:40 56.00907 -4.17820 5207 ft 192 kts 283°
2026-05-06 21:40 56.00876 -4.19969 5318 ft 162 kts 236°
2026-05-06 21:41 55.99931 -4.21026 5487 ft 167 kts 203°
2026-05-06 21:41 55.98871 -4.22156 5718 ft 185 kts 212°
2026-05-06 21:41 55.97730 -4.23504 5874 ft 209 kts 216°
2026-05-06 21:41 55.96562 -4.25263 5924 ft 234 kts 225°
2026-05-06 21:42 55.95443 -4.27100 6512 ft 200 kts 220°
2026-05-06 21:42 55.94452 -4.28847 5971 ft 206 kts 231°
2026-05-06 21:42 55.93502 -4.30938 5207 ft 224 kts 228°
2026-05-06 21:42 55.92419 -4.32818 4816 ft 211 kts 229°
2026-05-06 21:43 55.91508 -4.34827 4201 ft 204 kts 217°
2026-05-06 21:43 55.90294 -4.34935 3987 ft 186 kts 142°
2026-05-06 21:43 55.90108 -4.32783 3365 ft 199 kts 51°
2026-05-06 21:43 55.91343 -4.32537 2854 ft 196 kts 314°
2026-05-06 21:44 55.91483 -4.34626 2472 ft 176 kts 241°
2026-05-06 21:44 55.90797 -4.36437 1882 ft 178 kts 230°
2026-05-06 21:44 55.89983 -4.38095 1358 ft 175 kts 227°
2026-05-06 21:44 55.89125 -4.39672 719 ft 179 kts 225°
2026-05-06 21:45 55.88282 -4.41254 326 ft 169 kts 227°
2026-05-06 21:45 55.87499 -4.42736 48 ft 158 kts 226°
2026-05-06 21:45 55.86850 -4.43963 32 ft 97 kts 227°
2026-05-06 21:45 55.86528 -4.44480 36 ft 50 kts 205°
2026-05-06 21:46 55.86342 -4.44470 31 ft 15 kts 95°
2026-05-06 21:46 55.86400 -4.44355 31 ft 13 kts 41°
2026-05-06 21:46 55.86471 -4.44238 31 ft 15 kts 47°
2026-05-06 21:46 55.86544 -4.44099 31 ft 16 kts 47°
2026-05-06 21:47 55.86625 -4.43945 31 ft 18 kts 47°
2026-05-06 21:47 55.86714 -4.43777 31 ft 19 kts 47°
2026-05-06 21:47 55.86756 -4.43568 31 ft 19 kts 74°
2026-05-06 21:47 55.86792 -4.43337 31 ft 19 kts 75°
2026-05-06 21:48 55.86731 -4.43253 31 ft 13 kts 167°
2026-05-06 21:48 55.86703 -4.43240 31 ft 2 kts 165°
2026-05-06 21:48 55.86685 -4.43248 31 ft 3 kts 212°
2026-05-06 21:48 55.86674 -4.43291 31 ft 5 kts 255°
2026-05-06 21:49 55.86670 -4.43316 31 ft 0 kts 257°